Time;durP1;ratioP1;P1;durP2;ratioP2;P2;SDS_P1;SDS_P2;PMS_P1;PMS_P2;Temp;Humidity;BMP_temperature;BMP_pressure;BME280_temperature;BME280_humidity;BME280_pressure;Samples;Min_cycle;Max_cycle;Signal;HPM_P1;HPM_P2
2021/02/24 00:01:33;;;;;;;;;182.00;157.75;;;;;-1.52;85.27;103050.69;3725362;38;18064;-55
2021/02/24 00:03:59;;;;;;;;;196.25;152.50;;;;;-1.51;85.27;103042.69;3725535;37;18055;-56
2021/02/24 00:06:26;;;;;;;;;201.25;155.00;;;;;-1.59;85.50;103039.41;3725842;38;18059;-56
2021/02/24 00:08:52;;;;;;;;;195.75;151.25;;;;;-1.62;85.26;103044.81;3727157;37;18043;-58
2021/02/24 00:11:19;;;;;;;;;181.50;137.75;;;;;-1.64;85.28;103036.03;3727623;37;18063;-57
2021/02/24 00:13:46;;;;;;;;;184.75;140.50;;;;;-1.63;85.40;103034.25;3727993;37;18021;-57
2021/02/24 00:16:14;;;;;;;;;193.00;148.50;;;;;-1.57;85.64;103023.44;3726775;38;18021;-57
2021/02/24 00:18:42;;;;;;;;;181.50;142.00;;;;;-1.84;85.43;102980.84;3726053;38;18049;-55
2021/02/24 00:21:09;;;;;;;;;207.00;154.25;;;;;-1.63;85.34;103016.53;3725065;38;18054;-55
2021/02/24 00:23:39;;;;;;;;;179.75;147.00;;;;;-1.65;85.47;103013.03;3725229;37;18034;-56
2021/02/24 00:26:07;;;;;;;;;182.75;148.50;;;;;-1.68;85.50;103019.31;3725332;37;18009;-56
2021/02/24 00:28:36;;;;;;;;;182.25;148.50;;;;;-1.74;85.45;103016.84;3725120;38;18043;-56
2021/02/24 00:31:02;;;;;;;;;192.50;146.00;;;;;-1.71;85.52;103013.22;3725409;37;18016;-56
2021/02/24 00:33:29;;;;;;;;;180.75;142.50;;;;;-1.65;85.56;103001.56;3725477;38;18017;-55
2021/02/24 00:35:56;;;;;;;;;177.75;142.25;;;;;-1.71;85.51;102997.28;3725509;37;18035;-56
2021/02/24 00:38:22;;;;;;;;;181.25;135.25;;;;;-1.67;85.38;102998.94;3725594;38;17988;-57
2021/02/24 00:40:48;;;;;;;;;171.50;136.75;;;;;-1.68;85.24;103014.00;3725542;38;18017;-57
2021/02/24 00:43:16;;;;;;;;;178.25;139.00;;;;;-1.71;85.50;103011.44;3725462;38;18016;-56
2021/02/24 00:45:47;;;;;;;;;185.50;139.25;;;;;-1.73;85.22;103005.31;3725507;37;18016;-57
2021/02/24 00:48:15;;;;;;;;;176.50;143.75;;;;;-1.79;85.48;102999.28;3725445;38;18000;-56
2021/02/24 00:50:53;;;;;;;;;171.25;133.50;;;;;-1.76;85.23;103004.53;3725535;37;18057;-55
2021/02/24 00:53:19;;;;;;;;;197.00;150.75;;;;;-1.80;85.41;103013.47;3725590;37;18012;-56
2021/02/24 00:55:46;;;;;;;;;178.75;146.75;;;;;-1.88;85.33;103012.81;3725512;37;17983;-56
2021/02/24 00:58:12;;;;;;;;;184.25;152.00;;;;;-1.88;85.32;103010.19;3725197;37;17973;-56
2021/02/24 01:00:40;;;;;;;;;173.75;137.50;;;;;-1.93;85.40;102999.69;3724491;37;17970;-55
2021/02/24 01:03:07;;;;;;;;;166.25;120.25;;;;;-1.94;85.43;102991.78;3724898;37;17983;-56
2021/02/24 01:05:34;;;;;;;;;184.00;141.50;;;;;-1.87;85.51;102998.66;3725546;37;17992;-56
2021/02/24 01:08:00;;;;;;;;;178.50;140.00;;;;;-1.87;85.55;103001.31;3725558;38;17976;-56
2021/02/24 01:10:36;;;;;;;;;175.00;136.25;;;;;-1.87;85.22;102999.50;3725349;38;17983;-57
2021/02/24 01:13:05;;;;;;;;;143.50;107.50;;;;;-1.90;85.47;103006.69;3725472;38;17962;-56
2021/02/24 01:15:35;;;;;;;;;181.00;133.75;;;;;-1.96;85.25;102999.78;3725504;38;17964;-55
2021/02/24 01:18:01;;;;;;;;;176.75;139.50;;;;;-2.05;84.98;103003.56;3725337;37;17962;-56
2021/02/24 01:20:28;;;;;;;;;189.50;142.75;;;;;-2.07;85.36;102997.41;3725387;38;17962;-56
2021/02/24 01:23:00;;;;;;;;;181.50;147.75;;;;;-2.06;85.14;102995.63;3725383;37;17938;-56
2021/02/24 01:25:26;;;;;;;;;182.50;138.50;;;;;-2.28;85.04;102979.47;3724955;38;17954;-55
2021/02/24 01:27:53;;;;;;;;;195.00;148.75;;;;;-2.29;85.37;103000.72;3725368;37;17947;-57
2021/02/24 01:30:24;;;;;;;;;182.75;136.00;;;;;-2.36;85.37;102998.25;3725303;38;17954;-57
2021/02/24 01:32:51;;;;;;;;;172.75;140.00;;;;;-2.30;85.45;103004.28;3725434;37;17940;-57
2021/02/24 01:35:26;;;;;;;;;164.50;135.00;;;;;-2.23;85.85;103001.44;3725291;37;17940;-57
2021/02/24 01:37:53;;;;;;;;;157.75;125.00;;;;;-2.12;85.95;103007.31;3725517;37;17936;-56
2021/02/24 01:40:23;;;;;;;;;167.75;127.25;;;;;-2.12;85.54;103007.31;3725194;38;17940;-57
2021/02/24 01:42:50;;;;;;;;;156.50;126.75;;;;;-2.27;85.38;103007.72;3725298;38;17926;-58
2021/02/24 01:45:18;;;;;;;;;158.25;123.75;;;;;-2.31;85.44;103007.84;3725367;38;17919;-57
2021/02/24 01:47:45;;;;;;;;;162.25;119.00;;;;;-2.26;85.65;103013.91;3725445;37;17907;-56
2021/02/24 01:50:14;;;;;;;;;163.00;129.25;;;;;-2.37;85.72;103012.41;3725327;38;17995;-56
2021/02/24 01:52:41;;;;;;;;;163.25;117.75;;;;;-2.40;85.64;103017.78;3725429;37;17934;-56
2021/02/24 01:55:09;;;;;;;;;106.00;79.00;;;;;-2.50;85.44;102994.22;3725472;37;17915;-57
2021/02/24 01:57:38;;;;;;;;;165.50;129.75;;;;;-2.42;85.79;103024.03;3725245;38;17894;-57
2021/02/24 02:00:09;;;;;;;;;141.25;115.00;;;;;-2.50;85.72;103012.75;3725277;37;17920;-57
2021/02/24 02:02:36;;;;;;;;;140.00;113.75;;;;;-2.62;85.82;103029.00;3725031;38;17923;-56
2021/02/24 02:05:06;;;;;;;;;155.00;125.25;;;;;-2.68;85.64;103006.19;3725427;37;17920;-56
2021/02/24 02:07:32;;;;;;;;;155.00;122.00;;;;;-2.61;85.99;103021.03;3725238;37;17905;-57
2021/02/24 02:09:58;;;;;;;;;150.25;116.75;;;;;-2.60;85.90;103022.75;3725388;37;17915;-57
2021/02/24 02:12:25;;;;;;;;;145.50;121.50;;;;;-2.57;86.00;103021.78;3725273;37;17894;-56
2021/02/24 02:14:51;;;;;;;;;162.75;124.25;;;;;-2.60;85.76;103022.75;3725319;37;17897;-56
2021/02/24 02:17:17;;;;;;;;;127.75;112.25;;;;;-2.64;86.00;103029.06;3725368;37;17871;-56
2021/02/24 02:19:44;;;;;;;;;141.00;112.50;;;;;-2.61;85.84;103023.66;3725373;37;17872;-56
2021/02/24 02:22:10;;;;;;;;;137.50;108.00;;;;;-2.55;86.11;103036.75;3725249;38;17871;-56
2021/02/24 02:24:36;;;;;;;;;145.25;116.50;;;;;-2.62;85.97;103040.50;3725447;37;17881;-56
2021/02/24 02:27:05;;;;;;;;;153.75;120.75;;;;;-2.72;85.98;103053.09;3725357;38;17883;-56
2021/02/24 02:29:31;;;;;;;;;139.25;111.00;;;;;-2.73;85.88;103054.00;3725250;38;17886;-56
2021/02/24 02:31:57;;;;;;;;;167.00;132.75;;;;;-2.90;86.06;103020.84;3725203;37;17867;-57
2021/02/24 02:34:23;;;;;;;;;167.50;131.25;;;;;-2.75;85.98;103052.28;3725440;37;17855;-57
2021/02/24 02:36:51;;;;;;;;;164.75;137.00;;;;;-2.81;86.12;103047.13;3725322;38;17879;-56
2021/02/24 02:39:18;;;;;;;;;150.00;120.50;;;;;-2.83;86.16;103054.25;3725324;37;17868;-57
2021/02/24 02:41:45;;;;;;;;;143.00;116.50;;;;;-2.81;86.04;103061.25;3725286;38;17872;-57
2021/02/24 02:44:11;;;;;;;;;173.00;124.75;;;;;-2.89;86.15;103081.75;3725413;38;17850;-55
2021/02/24 02:46:37;;;;;;;;;152.25;118.25;;;;;-2.91;86.05;103085.34;3725259;37;17850;-56
2021/02/24 02:49:07;;;;;;;;;162.50;122.25;;;;;-2.96;86.49;103080.16;3725327;37;17843;-55
2021/02/24 02:51:36;;;;;;;;;93.25;58.00;;;;;-2.89;86.35;103084.41;3725345;38;17833;-57
2021/02/24 02:54:04;;;;;;;;;151.00;107.00;;;;;-2.91;86.47;103074.75;3725395;38;17838;-55
2021/02/24 02:56:31;;;;;;;;;147.25;125.75;;;;;-2.89;86.52;103080.91;3725092;38;17846;-56
2021/02/24 02:58:58;;;;;;;;;156.25;127.50;;;;;-2.77;86.42;103081.47;3725328;37;17850;-57
2021/02/24 03:01:26;;;;;;;;;164.75;123.50;;;;;-2.77;86.29;103094.72;3725401;37;17838;-56
2021/02/24 03:03:55;;;;;;;;;161.25;123.25;;;;;-2.85;86.42;103093.16;3725216;38;17829;-56
2021/02/24 03:06:28;;;;;;;;;157.25;126.75;;;;;-2.91;86.22;103094.19;3725319;37;17824;-56
2021/02/24 03:08:56;;;;;;;;;161.25;118.00;;;;;-3.00;86.31;103084.66;3725499;38;17832;-60
2021/02/24 03:11:23;;;;;;;;;110.25;70.00;;;;;-2.90;86.17;103093.28;3725356;37;17815;-55
2021/02/24 03:13:49;;;;;;;;;167.00;130.00;;;;;-2.89;86.20;103095.00;3725295;37;17834;-56
2021/02/24 03:16:16;;;;;;;;;159.00;117.00;;;;;-2.89;86.19;103087.06;3725271;37;17826;-56
2021/02/24 03:18:42;;;;;;;;;157.50;114.75;;;;;-2.92;86.16;103089.78;3725295;37;17800;-56
2021/02/24 03:21:08;;;;;;;;;142.25;121.75;;;;;-2.92;86.42;103089.78;3725396;38;17788;-56
2021/02/24 03:23:35;;;;;;;;;162.75;124.50;;;;;-2.97;86.24;103094.31;3725284;37;17808;-56
2021/02/24 03:26:03;;;;;;;;;165.00;120.25;;;;;-3.06;86.13;103108.63;3725359;37;17781;-56
2021/02/24 03:28:29;;;;;;;;;140.50;115.50;;;;;-3.09;86.46;103111.34;3725390;38;17796;-55
2021/02/24 03:30:57;;;;;;;;;123.00;85.25;;;;;-3.11;86.54;103122.88;3725110;38;17789;-57
2021/02/24 03:33:27;;;;;;;;;154.75;120.00;;;;;-3.08;86.65;103134.28;3725509;38;17774;-56
2021/02/24 03:35:53;;;;;;;;;149.00;121.75;;;;;-3.05;86.49;103120.09;3725416;38;17768;-57
2021/02/24 03:38:20;;;;;;;;;152.50;127.00;;;;;-2.98;86.84;103128.78;3725308;37;17762;-56
2021/02/24 03:40:47;;;;;;;;;155.25;121.00;;;;;-2.94;86.79;103128.69;3725479;37;17754;-56
2021/02/24 03:43:13;;;;;;;;;124.25;115.75;;;;;-2.94;86.67;103130.47;3724974;38;17777;-56
2021/02/24 03:45:39;;;;;;;;;134.25;114.50;;;;;-2.92;86.52;103131.31;3725383;37;17753;-56
2021/02/24 03:48:08;;;;;;;;;146.75;125.75;;;;;-2.93;86.63;103130.44;3725477;37;17749;-57
2021/02/24 03:50:36;;;;;;;;;157.00;119.00;;;;;-2.82;86.77;103135.50;3725627;37;17740;-57
2021/02/24 03:53:02;;;;;;;;;169.75;129.00;;;;;-2.77;86.60;103138.91;3725469;38;17777;-56
2021/02/24 03:55:28;;;;;;;;;148.00;124.50;;;;;-2.73;86.50;103136.16;3725444;38;17748;-56
2021/02/24 03:57:55;;;;;;;;;169.25;135.50;;;;;-2.66;86.64;103128.94;3725407;38;17748;-56
2021/02/24 04:00:22;;;;;;;;;179.75;126.25;;;;;-2.59;86.86;103133.16;3725371;38;17740;-56
2021/02/24 04:02:48;;;;;;;;;165.00;124.50;;;;;-2.46;86.83;103137.28;3725305;37;17756;-56
2021/02/24 04:05:14;;;;;;;;;166.00;129.00;;;;;-2.35;86.90;103137.00;3725394;37;17723;-56
2021/02/24 04:07:41;;;;;;;;;162.50;124.25;;;;;-2.23;86.75;103135.84;3725463;38;17753;-56
2021/02/24 04:10:08;;;;;;;;;165.25;132.75;;;;;-2.22;86.92;103117.22;3725556;38;17743;-56
2021/02/24 04:12:34;;;;;;;;;151.50;125.75;;;;;-2.07;86.95;103122.13;3725512;38;17719;-56
2021/02/24 04:15:01;;;;;;;;;157.00;122.00;;;;;-2.00;86.84;103117.53;3725538;38;17718;-58
2021/02/24 04:17:27;;;;;;;;;161.50;123.25;;;;;-1.89;86.72;103118.13;3725517;38;17732;-56
2021/02/24 04:19:56;;;;;;;;;166.00;123.00;;;;;-1.84;86.96;103108.25;3725375;38;17723;-56
2021/02/24 04:22:22;;;;;;;;;160.25;125.00;;;;;-1.78;86.92;103089.50;3725324;38;17714;-56
2021/02/24 04:24:48;;;;;;;;;154.25;117.75;;;;;-1.71;86.68;103104.34;3725452;38;17711;-57
2021/02/24 04:27:15;;;;;;;;;144.25;108.50;;;;;-1.66;86.80;103098.91;3725471;37;17724;-56
2021/02/24 04:29:41;;;;;;;;;140.50;111.50;;;;;-1.63;86.71;103098.84;3725375;38;17696;-56
2021/02/24 04:32:07;;;;;;;;;108.50;91.00;;;;;-1.52;87.06;103109.13;3725550;37;17726;-56
2021/02/24 04:34:33;;;;;;;;;125.50;101.75;;;;;-1.47;86.92;103094.81;3725557;37;17710;-56
2021/02/24 04:36:59;;;;;;;;;132.25;101.00;;;;;-1.39;87.06;103089.28;3725419;37;17689;-56
2021/02/24 04:39:26;;;;;;;;;125.25;103.50;;;;;-1.32;87.16;103093.50;3725465;37;17706;-56
2021/02/24 04:41:52;;;;;;;;;132.00;96.00;;;;;-1.27;87.40;103083.59;3725352;38;17686;-55
2021/02/24 04:44:18;;;;;;;;;118.25;98.25;;;;;-1.22;87.39;103084.34;3725274;37;17701;-55
2021/02/24 04:46:44;;;;;;;;;122.25;96.75;;;;;-1.16;87.15;103081.50;3725419;37;17702;-57
2021/02/24 04:49:10;;;;;;;;;121.50;91.00;;;;;-1.14;87.46;103074.34;3725462;38;17690;-56
2021/02/24 04:51:37;;;;;;;;;103.50;72.25;;;;;-1.10;87.50;103073.34;3725729;37;17672;-56
2021/02/24 04:54:03;;;;;;;;;90.50;68.00;;;;;-1.06;87.39;103069.66;3725643;38;17686;-55
2021/02/24 04:56:30;;;;;;;;;90.25;68.75;;;;;-1.04;87.38;103066.97;3725537;38;17678;-56
2021/02/24 04:58:56;;;;;;;;;90.25;67.25;;;;;-1.01;87.85;103067.69;3725420;38;17677;-55
2021/02/24 05:01:22;;;;;;;;;91.75;64.50;;;;;-1.00;87.87;103066.78;3725578;37;17676;-57
2021/02/24 05:03:48;;;;;;;;;84.25;61.75;;;;;-0.95;87.60;103069.31;3725484;37;20131;-56
2021/02/24 05:06:15;;;;;;;;;88.75;64.50;;;;;-0.83;87.91;103079.56;3725549;38;20167;-56
2021/02/24 05:08:41;;;;;;;;;93.75;62.25;;;;;-0.83;87.93;103076.03;3725292;38;20116;-57
2021/02/24 05:11:07;;;;;;;;;92.00;66.25;;;;;-0.85;87.74;103078.72;3725422;37;17707;-56
2021/02/24 05:13:33;;;;;;;;;87.75;65.00;;;;;-0.76;88.11;103080.22;3725371;37;17629;-56
2021/02/24 05:15:59;;;;;;;;;88.00;64.00;;;;;-0.77;87.80;103092.66;3725116;37;20157;-55
2021/02/24 05:18:26;;;;;;;;;91.00;68.50;;;;;-0.77;87.92;103082.03;3725253;37;17653;-55
2021/02/24 05:20:52;;;;;;;;;91.25;67.25;;;;;-0.74;87.90;103084.59;3725108;38;20130;-56
2021/02/24 05:23:18;;;;;;;;;102.00;68.50;;;;;-0.79;87.92;103075.00;3725268;37;17646;-57
2021/02/24 05:25:45;;;;;;;;;95.50;69.00;;;;;-0.73;88.01;103094.31;3725376;37;17638;-56
2021/02/24 05:28:11;;;;;;;;;91.75;68.00;;;;;-0.65;87.91;103103.81;3725402;38;17627;-56
2021/02/24 05:30:37;;;;;;;;;94.50;67.25;;;;;-0.68;88.08;103104.78;3725495;38;17624;-56
2021/02/24 05:33:04;;;;;;;;;95.50;70.50;;;;;-0.71;87.99;103111.06;3725381;37;17619;-56
2021/02/24 05:35:31;;;;;;;;;94.75;69.00;;;;;-0.63;88.27;103107.31;3725431;37;17609;-57
2021/02/24 05:37:57;;;;;;;;;96.50;71.75;;;;;-0.65;88.22;103103.81;3725333;38;17626;-57
2021/02/24 05:40:25;;;;;;;;;101.75;77.50;;;;;-0.71;88.44;103096.91;3725387;37;17604;-59
2021/02/24 05:42:51;;;;;;;;;98.00;70.00;;;;;-0.80;88.33;103110.50;3725547;37;17595;-57
2021/02/24 05:45:21;;;;;;;;;96.25;68.50;;;;;-0.75;88.50;103087.28;3725572;37;17603;-59
2021/02/24 05:47:48;;;;;;;;;93.50;69.75;;;;;-0.68;88.65;103088.84;3724944;38;17614;-56
2021/02/24 05:50:14;;;;;;;;;96.25;71.00;;;;;-0.50;88.66;103072.25;3725461;37;18591;-56
2021/02/24 05:52:41;;;;;;;;;100.75;72.75;;;;;-0.42;88.68;103064.03;3725441;37;18582;-56
2021/02/24 05:55:08;;;;;;;;;112.50;87.75;;;;;-0.39;88.42;103053.28;3725313;37;17604;-57
2021/02/24 05:57:34;;;;;;;;;102.75;78.00;;;;;-0.38;88.56;103025.75;3725230;37;18601;-56
2021/02/24 06:00:01;;;;;;;;;93.00;68.50;;;;;-0.29;88.37;103020.13;3725352;37;18599;-58
2021/02/24 06:02:35;;;;;;;;;94.00;67.50;;;;;-0.09;88.62;103075.31;3725311;38;18591;-57
2021/02/24 06:05:01;;;;;;;;;95.75;68.00;;;;;-0.08;88.32;103079.72;3725413;37;18579;-55
2021/02/24 06:07:47;;;;;;;;;92.50;64.00;;;;;-0.10;88.25;103086.88;3724932;38;21046;-56
2021/02/24 06:10:13;;;;;;;;;93.00;66.25;;;;;-0.03;88.19;103067.13;3725576;37;18595;-57
2021/02/24 06:12:42;;;;;;;;;87.75;66.75;;;;;0.04;88.20;103068.59;3725403;38;18571;-61
2021/02/24 06:15:09;;;;;;;;;92.50;69.75;;;;;0.11;88.44;103069.25;3725433;38;21038;-57
2021/02/24 06:17:35;;;;;;;;;86.75;68.25;;;;;0.08;88.03;103085.34;3725589;37;18583;-55
2021/02/24 06:20:20;;;;;;;;;93.25;70.75;;;;;0.00;88.16;103090.97;3725467;38;18556;-54
2021/02/24 06:22:50;;;;;;;;;93.75;69.25;;;;;0.09;88.36;103077.31;3725406;37;18542;-56
2021/02/24 06:25:20;;;;;;;;;95.00;68.00;;;;;0.23;88.28;103072.34;3725482;38;18561;-55
2021/02/24 06:27:54;;;;;;;;;101.00;74.75;;;;;0.25;88.14;103070.50;3725195;37;18540;-56
2021/02/24 06:30:22;;;;;;;;;91.50;69.00;;;;;0.31;88.29;103061.44;3725554;37;18560;-58
2021/02/24 06:32:57;;;;;;;;;95.25;68.25;;;;;0.33;87.96;103064.91;3725524;37;18547;-57
2021/02/24 06:35:25;;;;;;;;;95.00;73.00;;;;;0.27;87.90;103049.16;3725534;37;18546;-55
2021/02/24 06:37:52;;;;;;;;;97.50;72.75;;;;;0.35;87.83;103028.44;3725443;37;18547;-58
2021/02/24 06:40:19;;;;;;;;;98.75;74.00;;;;;0.44;88.14;103020.09;3725479;37;18522;-56
2021/02/24 06:42:46;;;;;;;;;99.25;81.50;;;;;0.47;87.84;103014.66;3725734;37;18523;-58
2021/02/24 06:45:23;;;;;;;;;97.75;74.75;;;;;0.58;87.87;103023.06;3725435;38;18545;-56
2021/02/24 06:47:53;;;;;;;;;99.50;76.50;;;;;0.64;87.92;103012.19;3725494;37;18508;-57
2021/02/24 06:50:19;;;;;;;;;99.75;81.25;;;;;0.68;87.75;103012.94;3725535;38;18507;-56
2021/02/24 06:52:47;;;;;;;;;101.75;86.75;;;;;0.80;88.05;103017.78;3725464;38;18503;-58
2021/02/24 06:55:39;;;;;;;;;99.50;84.00;;;;;0.55;87.89;102979.69;3725025;37;18507;-57
2021/02/24 06:58:49;;;;;;;;;189.00;137.50;;;;;-0.02;87.79;102951.72;3725490;38;18485;-58
2021/02/24 07:01:29;;;;;;;;;141.75;112.50;;;;;1.10;87.66;103036.13;3724844;38;18501;-58
2021/02/24 07:04:32;;;;;;;;;113.25;86.00;;;;;1.13;87.76;103049.34;3724876;38;18514;-56
2021/02/24 07:07:37;;;;;;;;;124.00;93.75;;;;;1.18;87.60;103050.03;3725417;38;18520;-57
2021/02/24 07:10:07;;;;;;;;;109.75;85.75;;;;;1.19;87.38;103057.09;3725535;38;18488;-58
2021/02/24 07:12:35;;;;;;;;;114.75;98.50;;;;;1.18;87.16;103060.69;3725619;38;18504;-57
2021/02/24 07:15:06;;;;;;;;;119.75;97.50;;;;;1.19;86.94;103068.62;3725325;38;18499;-58
2021/02/24 07:17:33;;;;;;;;;121.00;100.75;;;;;1.21;86.86;103077.44;3725397;38;18475;-57
2021/02/24 07:20:00;;;;;;;;;121.25;103.25;;;;;1.25;86.90;103067.53;3725395;38;18486;-57
2021/02/24 07:22:28;;;;;;;;;124.75;101.25;;;;;1.32;86.89;103080.53;3724798;38;18697;-58
2021/02/24 07:24:56;;;;;;;;;136.75;118.75;;;;;1.45;87.05;103080.06;3725219;37;18488;-58
2021/02/24 07:27:25;;;;;;;;;136.50;112.00;;;;;1.51;87.14;103070.00;3725253;37;18476;-56
2021/02/24 07:30:26;;;;;;;;;141.00;104.00;;;;;1.60;86.78;103072.25;3724936;38;18473;-56
2021/02/24 07:32:54;;;;;;;;;121.00;103.75;;;;;1.77;86.93;103062.66;3724834;37;18466;-57
2021/02/24 07:35:23;;;;;;;;;136.25;108.25;;;;;1.94;86.69;103054.81;3725301;37;18471;-56
2021/02/24 07:37:51;;;;;;;;;125.50;100.50;;;;;2.10;86.90;103046.97;3725149;38;18446;-58
2021/02/24 07:40:38;;;;;;;;;129.75;108.50;;;;;2.21;86.62;103039.34;3725203;37;18464;-57
2021/02/24 07:43:09;;;;;;;;;116.00;92.75;;;;;2.26;86.40;103050.69;3725359;37;18441;-56
2021/02/24 07:45:56;;;;;;;;;116.25;86.50;;;;;2.13;85.67;103050.37;3725435;37;18430;-56
2021/02/24 07:48:25;;;;;;;;;96.50;82.75;;;;;2.12;85.26;103050.44;3725437;37;18412;-58
2021/02/24 07:50:54;;;;;;;;;87.75;67.00;;;;;1.94;85.16;103055.69;3725069;37;18430;-56
2021/02/24 07:53:27;;;;;;;;;93.50;74.50;;;;;1.73;84.63;103056.59;3725375;37;18425;-58
2021/02/24 07:55:55;;;;;;;;;88.00;66.75;;;;;1.65;84.71;103061.38;3725643;38;18448;-58
2021/02/24 07:58:33;;;;;;;;;99.00;76.00;;;;;1.50;84.87;103054.91;3725297;37;18439;-58
2021/02/24 08:01:03;;;;;;;;;100.00;85.75;;;;;1.58;85.11;103063.44;3725362;38;18435;-56
2021/02/24 08:03:33;;;;;;;;;94.00;72.50;;;;;1.73;85.00;103061.06;3725078;37;18406;-57
2021/02/24 08:06:10;;;;;;;;;98.00;75.75;;;;;1.81;84.93;103061.59;3725162;37;18441;-59
2021/02/24 08:08:40;;;;;;;;;99.25;77.50;;;;;1.72;84.55;103062.00;3725420;38;18424;-58
2021/02/24 08:11:13;;;;;;;;;107.50;82.50;;;;;1.82;84.83;103064.22;3725486;37;18412;-57
2021/02/24 08:13:43;;;;;;;;;102.25;81.50;;;;;1.95;84.78;103053.87;3725590;38;18389;-58
2021/02/24 08:16:32;;;;;;;;;101.25;78.50;;;;;2.11;84.73;103060.25;3725490;38;18391;-59
2021/02/24 08:19:06;;;;;;;;;99.25;84.00;;;;;2.24;84.71;103063.25;3725462;37;18414;-57
2021/02/24 08:21:36;;;;;;;;;94.75;80.25;;;;;2.34;84.36;103069.91;3725265;38;18414;-57
2021/02/24 08:24:08;;;;;;;;;94.50;75.25;;;;;2.26;83.95;103064.91;3725318;37;18383;-57
2021/02/24 08:26:35;;;;;;;;;89.25;66.00;;;;;2.39;84.31;103075.06;3725480;37;18383;-59
2021/02/24 08:29:13;;;;;;;;;93.00;66.00;;;;;2.41;83.87;103078.53;3725333;37;18375;-59
2021/02/24 08:32:06;;;;;;;;;93.25;69.00;;;;;2.41;84.10;103058.00;3725350;37;18402;-56
2021/02/24 08:34:43;;;;;;;;;84.75;66.50;;;;;2.52;83.76;103076.25;3725440;37;18369;-57
2021/02/24 08:37:32;;;;;;;;;86.00;66.00;;;;;2.66;84.01;103076.44;3725654;38;18379;-58
2021/02/24 08:40:05;;;;;;;;;88.00;66.00;;;;;2.57;83.41;103066.22;3725474;38;20843;-57
2021/02/24 08:42:36;;;;;;;;;95.75;74.25;;;;;2.58;83.34;103063.47;3725338;37;18376;-57
2021/02/24 08:45:12;;;;;;;;;95.25;74.50;;;;;2.66;83.17;103063.94;3725537;37;18364;-57
2021/02/24 08:47:58;;;;;;;;;91.50;66.25;;;;;2.78;83.54;103058.97;3725473;38;18382;-56
2021/02/24 08:50:30;;;;;;;;;94.50;81.25;;;;;3.02;83.57;103049.78;3725225;37;18374;-56
2021/02/24 08:52:59;;;;;;;;;103.00;85.00;;;;;3.10;83.14;103055.62;3725464;37;18349;-56
2021/02/24 08:55:30;;;;;;;;;103.00;79.75;;;;;3.24;83.07;103062.97;3725417;38;18349;-57
2021/02/24 08:58:02;;;;;;;;;99.75;83.75;;;;;3.29;82.71;103061.81;3725523;38;18361;-57
2021/02/24 09:00:40;;;;;;;;;97.00;80.00;;;;;3.18;82.39;103039.19;3725393;38;18341;-58
2021/02/24 09:03:15;;;;;;;;;93.50;73.00;;;;;3.33;82.12;103066.06;3725356;37;18327;-56
2021/02/24 09:05:52;;;;;;;;;94.50;72.75;;;;;3.46;82.15;103071.69;3725491;37;18355;-58
2021/02/24 09:08:28;;;;;;;;;91.75;71.00;;;;;3.41;81.24;103078.22;3725342;38;18347;-56
2021/02/24 09:10:57;;;;;;;;;90.25;63.25;;;;;3.47;81.76;103041.28;3725507;38;18333;-59
2021/02/24 09:13:26;;;;;;;;;95.00;78.50;;;;;3.93;81.49;103061.22;3725366;38;18331;-57
2021/02/24 09:15:52;;;;;;;;;93.75;73.25;;;;;4.05;80.89;103057.03;3725308;37;18333;-57
2021/02/24 09:18:19;;;;;;;;;94.50;75.00;;;;;4.25;80.71;103055.97;3725378;37;18328;-57
2021/02/24 09:20:50;;;;;;;;;92.25;74.50;;;;;4.37;80.18;103058.00;3725396;37;18335;-56
2021/02/24 09:23:25;;;;;;;;;88.75;64.00;;;;;4.39;79.60;103040.00;3725273;37;18323;-57
2021/02/24 09:26:03;;;;;;;;;90.00;66.00;;;;;4.48;78.75;103042.19;3725368;38;20811;-58
2021/02/24 09:28:50;;;;;;;;;104.25;82.25;;;;;4.48;78.79;103009.16;3725311;38;18310;-57
2021/02/24 09:31:30;;;;;;;;;93.25;73.50;;;;;4.62;78.17;103041.44;3725414;37;18297;-57
2021/02/24 09:33:58;;;;;;;;;84.50;65.25;;;;;4.47;77.81;103045.81;3725249;38;18298;-58
2021/02/24 09:36:32;;;;;;;;;88.50;66.25;;;;;4.59;78.02;103042.47;3725408;37;18293;-57
2021/02/24 09:38:59;;;;;;;;;84.75;64.75;;;;;4.62;77.35;103062.91;3725293;37;18300;-56
2021/02/24 09:41:27;;;;;;;;;85.75;66.75;;;;;4.77;78.03;103037.03;3725402;37;18298;-59
2021/02/24 09:43:54;;;;;;;;;85.00;65.75;;;;;4.88;77.42;103054.25;3725323;37;18284;-59
2021/02/24 09:46:21;;;;;;;;;90.25;73.50;;;;;4.92;77.12;103053.13;3725251;38;20770;-56
2021/02/24 09:48:53;;;;;;;;;85.50;65.75;;;;;4.73;76.65;103036.31;3725358;38;18298;-57
2021/02/24 09:51:21;;;;;;;;;81.75;60.25;;;;;4.94;77.09;103086.12;3725342;37;20747;-57
2021/02/24 09:53:50;;;;;;;;;84.00;65.50;;;;;4.90;76.55;103081.88;3725162;38;20759;-58
2021/02/24 09:56:30;;;;;;;;;88.25;66.50;;;;;5.05;76.69;103092.72;3725195;37;20754;-57
2021/02/24 09:58:59;;;;;;;;;89.75;67.00;;;;;5.20;76.60;103078.44;3725351;38;18288;-57
2021/02/24 10:01:32;;;;;;;;;89.25;64.50;;;;;5.35;75.93;103065.91;3725305;37;18284;-58
2021/02/24 10:04:00;;;;;;;;;89.25;68.25;;;;;5.46;75.63;103060.81;3725039;37;20734;-57
2021/02/24 10:06:30;;;;;;;;;87.00;67.50;;;;;5.69;75.59;103054.94;3725057;38;18259;-57
2021/02/24 10:08:59;;;;;;;;;91.25;72.25;;;;;5.91;75.21;103055.41;3725385;38;20741;-57
2021/02/24 10:11:28;;;;;;;;;85.75;67.50;;;;;5.99;74.81;103028.06;3725470;37;18251;-56
2021/02/24 10:13:55;;;;;;;;;93.25;73.25;;;;;6.06;74.09;103025.88;3725031;37;18250;-57
2021/02/24 10:16:22;;;;;;;;;95.75;77.25;;;;;6.24;74.29;103039.03;3725348;38;18246;-57
2021/02/24 10:18:49;;;;;;;;;100.50;87.50;;;;;6.50;74.14;103050.84;3725444;38;18259;-58
2021/02/24 10:21:15;;;;;;;;;115.50;92.25;;;;;6.63;73.31;103042.88;3725303;37;18237;-57
2021/02/24 10:23:42;;;;;;;;;105.50;86.00;;;;;6.76;72.95;103037.59;3725035;38;18255;-57
2021/02/24 10:26:09;;;;;;;;;93.25;80.00;;;;;6.84;72.61;103029.84;3725382;37;18223;-56
2021/02/24 10:28:36;;;;;;;;;94.75;80.00;;;;;6.76;72.39;103024.97;3725379;37;18240;-57
2021/02/24 10:31:02;;;;;;;;;89.25;69.00;;;;;6.81;72.17;103019.28;3725428;37;18226;-55
2021/02/24 10:33:30;;;;;;;;;88.50;75.50;;;;;7.01;71.92;103018.00;3725605;38;18221;-57
2021/02/24 10:35:56;;;;;;;;;94.25;81.50;;;;;7.33;71.48;103005.94;3725330;37;18226;-57
2021/02/24 10:38:25;;;;;;;;;87.50;71.25;;;;;7.42;70.72;102989.16;3725411;37;18206;-56
2021/02/24 10:40:53;;;;;;;;;89.25;78.50;;;;;7.59;70.27;103001.50;3725753;38;18217;-57
2021/02/24 10:43:24;;;;;;;;;92.50;72.75;;;;;7.62;69.54;102990.50;3725670;38;18226;-57
2021/02/24 10:45:50;;;;;;;;;91.25;76.75;;;;;7.74;69.32;102986.09;3725517;38;18191;-57
2021/02/24 10:48:17;;;;;;;;;92.50;75.50;;;;;7.86;69.30;102985.22;3725438;37;18217;-56
2021/02/24 10:50:49;;;;;;;;;83.75;71.75;;;;;8.08;68.33;102985.47;3724964;37;18219;-56
2021/02/24 10:53:18;;;;;;;;;84.75;68.00;;;;;8.02;67.32;102983.19;3725445;38;18180;-57
2021/02/24 10:55:45;;;;;;;;;94.00;77.75;;;;;8.08;67.21;102988.16;3724971;38;18178;-56
2021/02/24 10:58:12;;;;;;;;;80.75;66.75;;;;;8.11;66.84;102987.94;3725208;37;18190;-56
2021/02/24 11:00:38;;;;;;;;;87.50;72.75;;;;;8.13;66.99;102968.97;3725327;37;18178;-56
2021/02/24 11:03:05;;;;;;;;;84.50;69.75;;;;;8.28;66.85;102981.34;3725425;37;18185;-57
2021/02/24 11:05:32;;;;;;;;;83.50;70.50;;;;;8.29;65.71;102956.09;3725422;37;20679;-57
2021/02/24 11:08:00;;;;;;;;;85.00;72.50;;;;;8.60;66.45;102962.84;3725532;38;18251;-56
2021/02/24 11:10:26;;;;;;;;;83.25;68.50;;;;;8.78;65.65;102966.91;3725454;38;18200;-56
2021/02/24 11:12:53;;;;;;;;;83.00;69.25;;;;;8.93;65.77;102952.25;3725177;38;18186;-57
2021/02/24 11:15:19;;;;;;;;;84.75;72.50;;;;;9.08;64.34;102957.47;3725522;37;18166;-56